sensor_id;sensor_type;location;lat;lon;timestamp;pressure;altitude;pressure_sealevel;temperature;humidity
10006;BME280;5042;42.626;23.382;2023-02-12T00:01:13;95307.88;;;1.40;51.76
10006;BME280;5042;42.626;23.382;2023-02-12T00:03:40;95323.97;;;1.44;52.11
10006;BME280;5042;42.626;23.382;2023-02-12T00:06:08;95311.88;;;1.44;52.53
10006;BME280;5042;42.626;23.382;2023-02-12T00:08:37;95292.41;;;1.27;53.35
10006;BME280;5042;42.626;23.382;2023-02-12T00:11:09;95289.34;;;1.22;52.25
10006;BME280;5042;42.626;23.382;2023-02-12T00:13:36;95313.91;;;1.28;52.66
10006;BME280;5042;42.626;23.382;2023-02-12T00:16:06;95299.69;;;1.22;51.91
10006;BME280;5042;42.626;23.382;2023-02-12T00:18:34;95310.78;;;1.36;52.16
10006;BME280;5042;42.626;23.382;2023-02-12T00:21:01;95307.97;;;1.39;51.62
10006;BME280;5042;42.626;23.382;2023-02-12T00:23:28;95322.75;;;1.37;52.28
10006;BME280;5042;42.626;23.382;2023-02-12T00:25:56;95316.38;;;1.30;51.84
10006;BME280;5042;42.626;23.382;2023-02-12T00:28:22;95294.84;;;1.18;51.38
10006;BME280;5042;42.626;23.382;2023-02-12T00:30:49;95325.56;;;1.34;52.15
10006;BME280;5042;42.626;23.382;2023-02-12T00:33:16;95295.16;;;1.37;50.32
10006;BME280;5042;42.626;23.382;2023-02-12T00:35:43;95313.38;;;1.36;51.23
10006;BME280;5042;42.626;23.382;2023-02-12T00:38:09;95313.56;;;1.33;51.12
10006;BME280;5042;42.626;23.382;2023-02-12T00:40:36;95299.81;;;1.45;50.56
10006;BME280;5042;42.626;23.382;2023-02-12T00:43:04;95305.16;;;1.42;50.42
10006;BME280;5042;42.626;23.382;2023-02-12T00:45:31;95292.16;;;1.43;50.01
10006;BME280;5042;42.626;23.382;2023-02-12T00:47:58;95286.38;;;1.40;49.83
10006;BME280;5042;42.626;23.382;2023-02-12T00:50:24;95284.63;;;1.40;50.71
10006;BME280;5042;42.626;23.382;2023-02-12T00:52:51;95294.25;;;1.38;50.47
10006;BME280;5042;42.626;23.382;2023-02-12T00:55:18;95291.09;;;1.46;50.81
10006;BME280;5042;42.626;23.382;2023-02-12T00:57:45;95288.41;;;1.47;50.05
10006;BME280;5042;42.626;23.382;2023-02-12T01:00:14;95228.16;;;1.12;50.11
10006;BME280;5042;42.626;23.382;2023-02-12T01:02:41;95275.13;;;1.41;51.02
10006;BME280;5042;42.626;23.382;2023-02-12T01:05:08;95271.25;;;1.46;50.89
10006;BME280;5042;42.626;23.382;2023-02-12T01:07:35;95239.56;;;1.20;51.02
10006;BME280;5042;42.626;23.382;2023-02-12T01:10:04;95261.22;;;1.31;51.37
10006;BME280;5042;42.626;23.382;2023-02-12T01:12:31;95251.84;;;1.41;51.43
10006;BME280;5042;42.626;23.382;2023-02-12T01:14:57;95267.59;;;1.38;50.74
10006;BME280;5042;42.626;23.382;2023-02-12T01:17:26;95255.94;;;1.32;50.52
10006;BME280;5042;42.626;23.382;2023-02-12T01:19:56;95279.13;;;1.45;50.09
10006;BME280;5042;42.626;23.382;2023-02-12T01:22:23;95278.19;;;1.46;50.75
10006;BME280;5042;42.626;23.382;2023-02-12T01:24:49;95283.13;;;1.49;50.26
10006;BME280;5042;42.626;23.382;2023-02-12T01:27:16;95292.31;;;1.53;50.88
10006;BME280;5042;42.626;23.382;2023-02-12T01:29:43;95288.28;;;1.49;51.73
10006;BME280;5042;42.626;23.382;2023-02-12T01:32:10;95278.66;;;1.51;50.46
10006;BME280;5042;42.626;23.382;2023-02-12T01:34:38;95269.03;;;1.53;51.73
10006;BME280;5042;42.626;23.382;2023-02-12T01:37:05;95243.81;;;1.33;51.73
10006;BME280;5042;42.626;23.382;2023-02-12T01:39:32;95209.19;;;1.24;51.38
10006;BME280;5042;42.626;23.382;2023-02-12T01:42:00;95259.19;;;1.58;51.61
10006;BME280;5042;42.626;23.382;2023-02-12T01:44:28;95235.16;;;1.34;51.51
10006;BME280;5042;42.626;23.382;2023-02-12T01:46:56;95250.91;;;1.42;51.93
10006;BME280;5042;42.626;23.382;2023-02-12T01:49:27;95235.03;;;1.35;52.03
10006;BME280;5042;42.626;23.382;2023-02-12T01:52:02;95239.00;;;1.28;52.69
10006;BME280;5042;42.626;23.382;2023-02-12T01:54:30;95236.69;;;1.36;52.70
10006;BME280;5042;42.626;23.382;2023-02-12T01:57:00;95180.56;;;1.03;52.17
10006;BME280;5042;42.626;23.382;2023-02-12T01:59:28;95232.44;;;1.35;52.09
10006;BME280;5042;42.626;23.382;2023-02-12T02:01:55;95226.06;;;1.28;52.88
10006;BME280;5042;42.626;23.382;2023-02-12T02:04:25;95222.56;;;1.29;52.83
10006;BME280;5042;42.626;23.382;2023-02-12T02:06:57;95220.31;;;1.24;52.40
10006;BME280;5042;42.626;23.382;2023-02-12T02:09:27;95227.41;;;1.34;52.69
10006;BME280;5042;42.626;23.382;2023-02-12T02:11:55;95207.59;;;1.10;53.86
10006;BME280;5042;42.626;23.382;2023-02-12T02:14:40;95217.03;;;1.22;54.04
10006;BME280;5042;42.626;23.382;2023-02-12T02:17:16;95218.22;;;1.30;53.24
10006;BME280;5042;42.626;23.382;2023-02-12T02:20:15;95232.09;;;1.29;53.28
10006;BME280;5042;42.626;23.382;2023-02-12T02:22:50;95233.00;;;1.27;54.48
10006;BME280;5042;42.626;23.382;2023-02-12T02:25:52;95226.06;;;1.17;55.45
10006;BME280;5042;42.626;23.382;2023-02-12T02:28:38;95186.44;;;1.05;54.80
10006;BME280;5042;42.626;23.382;2023-02-12T02:31:14;95222.53;;;1.18;54.66
10006;BME280;5042;42.626;23.382;2023-02-12T02:33:50;95221.94;;;1.14;54.77
10006;BME280;5042;42.626;23.382;2023-02-12T02:36:26;95208.75;;;1.06;55.24
10006;BME280;5042;42.626;23.382;2023-02-12T02:39:04;95222.63;;;1.16;55.48
10006;BME280;5042;42.626;23.382;2023-02-12T02:41:37;95209.69;;;1.05;55.69
10006;BME280;5042;42.626;23.382;2023-02-12T02:44:09;95195.97;;;1.16;55.61
10006;BME280;5042;42.626;23.382;2023-02-12T02:46:43;95217.03;;;1.22;55.82
10006;BME280;5042;42.626;23.382;2023-02-12T02:49:16;95210.22;;;1.21;57.06
10006;BME280;5042;42.626;23.382;2023-02-12T02:51:47;95229.56;;;1.16;56.66
10006;BME280;5042;42.626;23.382;2023-02-12T02:54:19;95225.09;;;1.18;56.80
10006;BME280;5042;42.626;23.382;2023-02-12T02:56:48;95246.06;;;1.26;57.98
10006;BME280;5042;42.626;23.382;2023-02-12T02:59:20;95239.22;;;1.25;57.66
10006;BME280;5042;42.626;23.382;2023-02-12T03:01:55;95232.94;;;1.16;57.56
10006;BME280;5042;42.626;23.382;2023-02-12T03:04:27;95259.56;;;1.30;57.71
10006;BME280;5042;42.626;23.382;2023-02-12T03:06:59;95255.34;;;1.29;58.54
10006;BME280;5042;42.626;23.382;2023-02-12T03:09:31;95258.41;;;1.34;58.88
10006;BME280;5042;42.626;23.382;2023-02-12T03:12:02;95253.00;;;1.37;58.51
10006;BME280;5042;42.626;23.382;2023-02-12T03:14:33;95243.63;;;1.36;59.30
10006;BME280;5042;42.626;23.382;2023-02-12T03:17:05;95247.94;;;1.35;57.89
10006;BME280;5042;42.626;23.382;2023-02-12T03:19:36;95232.69;;;1.32;59.39
10006;BME280;5042;42.626;23.382;2023-02-12T03:22:07;95181.47;;;0.91;59.94
10006;BME280;5042;42.626;23.382;2023-02-12T03:24:38;95242.44;;;1.29;60.78
10006;BME280;5042;42.626;23.382;2023-02-12T03:27:08;95247.34;;;1.32;59.57
10006;BME280;5042;42.626;23.382;2023-02-12T03:29:36;95244.44;;;1.36;60.38
10006;BME280;5042;42.626;23.382;2023-02-12T03:32:14;95235.88;;;1.36;59.38
10006;BME280;5042;42.626;23.382;2023-02-12T03:34:50;95223.84;;;1.23;60.56
10006;BME280;5042;42.626;23.382;2023-02-12T03:37:26;95244.22;;;1.39;61.61
10006;BME280;5042;42.626;23.382;2023-02-12T03:39:56;95239.38;;;1.35;61.71
10006;BME280;5042;42.626;23.382;2023-02-12T03:42:32;95240.31;;;1.34;62.68
10006;BME280;5042;42.626;23.382;2023-02-12T03:45:03;95227.88;;;1.39;61.79
10006;BME280;5042;42.626;23.382;2023-02-12T03:47:41;95226.25;;;1.38;62.84
10006;BME280;5042;42.626;23.382;2023-02-12T03:50:11;95231.84;;;1.32;61.92
10006;BME280;5042;42.626;23.382;2023-02-12T03:52:40;95229.38;;;1.30;64.07
10006;BME280;5042;42.626;23.382;2023-02-12T03:55:08;95230.22;;;1.31;63.36
10006;BME280;5042;42.626;23.382;2023-02-12T03:57:40;95231.25;;;1.28;64.54
10006;BME280;5042;42.626;23.382;2023-02-12T04:00:11;95231.38;;;1.26;64.81
10006;BME280;5042;42.626;23.382;2023-02-12T04:02:41;95241.50;;;1.05;64.38
10006;BME280;5042;42.626;23.382;2023-02-12T04:05:16;95238.41;;;1.00;65.67
10006;BME280;5042;42.626;23.382;2023-02-12T04:07:43;95225.84;;;0.96;65.28
10006;BME280;5042;42.626;23.382;2023-02-12T04:10:10;95222.09;;;1.00;66.76
10006;BME280;5042;42.626;23.382;2023-02-12T04:12:39;95230.34;;;1.05;65.97
10006;BME280;5042;42.626;23.382;2023-02-12T04:15:27;95239.63;;;1.08;65.83
10006;BME280;5042;42.626;23.382;2023-02-12T04:18:01;95228.25;;;1.10;66.75
10006;BME280;5042;42.626;23.382;2023-02-12T04:20:41;95198.09;;;0.87;66.78
10006;BME280;5042;42.626;23.382;2023-02-12T04:23:20;95243.41;;;1.15;69.03
10006;BME280;5042;42.626;23.382;2023-02-12T04:25:55;95239.06;;;1.15;68.05
10006;BME280;5042;42.626;23.382;2023-02-12T04:28:35;95248.03;;;1.22;67.96
10006;BME280;5042;42.626;23.382;2023-02-12T04:31:10;95257.16;;;1.15;67.33
10006;BME280;5042;42.626;23.382;2023-02-12T04:33:44;95228.47;;;1.07;65.83
10006;BME280;5042;42.626;23.382;2023-02-12T04:36:16;95253.84;;;1.13;67.19
10006;BME280;5042;42.626;23.382;2023-02-12T04:38:49;95263.59;;;1.10;68.27
10006;BME280;5042;42.626;23.382;2023-02-12T04:41:17;95254.34;;;0.94;71.07
10006;BME280;5042;42.626;23.382;2023-02-12T04:43:45;95254.38;;;0.81;72.87
10006;BME280;5042;42.626;23.382;2023-02-12T04:46:11;95257.53;;;0.61;76.93
10006;BME280;5042;42.626;23.382;2023-02-12T04:48:50;95258.91;;;0.28;79.70
10006;BME280;5042;42.626;23.382;2023-02-12T04:51:18;95266.47;;;0.18;83.21
10006;BME280;5042;42.626;23.382;2023-02-12T04:53:45;95264.00;;;0.17;86.02
10006;BME280;5042;42.626;23.382;2023-02-12T04:56:12;95252.66;;;0.19;83.50
10006;BME280;5042;42.626;23.382;2023-02-12T04:58:40;95266.47;;;0.31;84.17
10006;BME280;5042;42.626;23.382;2023-02-12T05:01:08;95252.44;;;0.23;82.01
10006;BME280;5042;42.626;23.382;2023-02-12T05:03:36;95268.44;;;0.15;83.40
10006;BME280;5042;42.626;23.382;2023-02-12T05:06:09;95248.44;;;0.06;86.68
10006;BME280;5042;42.626;23.382;2023-02-12T05:08:36;95264.19;;;0.14;86.08
10006;BME280;5042;42.626;23.382;2023-02-12T05:11:04;95262.06;;;0.08;88.21
10006;BME280;5042;42.626;23.382;2023-02-12T05:13:31;95259.75;;;0.16;86.79
10006;BME280;5042;42.626;23.382;2023-02-12T05:15:58;95267.00;;;0.11;85.52
10006;BME280;5042;42.626;23.382;2023-02-12T05:18:27;95264.41;;;0.11;86.49
10006;BME280;5042;42.626;23.382;2023-02-12T05:20:55;95265.13;;;0.13;88.27
10006;BME280;5042;42.626;23.382;2023-02-12T05:23:25;95265.84;;;0.15;88.68
10006;BME280;5042;42.626;23.382;2023-02-12T05:25:52;95263.69;;;0.22;86.12
10006;BME280;5042;42.626;23.382;2023-02-12T05:28:19;95261.28;;;0.44;78.24
10006;BME280;5042;42.626;23.382;2023-02-12T05:30:46;95273.13;;;0.59;75.55
10006;BME280;5042;42.626;23.382;2023-02-12T05:33:13;95285.78;;;0.75;77.32
10006;BME280;5042;42.626;23.382;2023-02-12T05:35:39;95290.63;;;0.80;83.06
10006;BME280;5042;42.626;23.382;2023-02-12T05:38:06;95293.09;;;0.81;91.09
10006;BME280;5042;42.626;23.382;2023-02-12T05:40:34;95287.72;;;0.84;90.40
10006;BME280;5042;42.626;23.382;2023-02-12T05:43:01;95164.50;;;0.14;85.24
10006;BME280;5042;42.626;23.382;2023-02-12T05:45:28;95296.91;;;0.89;86.36
10006;BME280;5042;42.626;23.382;2023-02-12T05:47:55;95269.38;;;0.76;84.65
10006;BME280;5042;42.626;23.382;2023-02-12T05:50:22;95296.13;;;0.99;85.21
10006;BME280;5042;42.626;23.382;2023-02-12T05:52:49;95298.63;;;1.01;86.91
10006;BME280;5042;42.626;23.382;2023-02-12T05:55:16;95292.97;;;0.96;87.80
10006;BME280;5042;42.626;23.382;2023-02-12T05:57:44;95193.03;;;0.24;87.80
10006;BME280;5042;42.626;23.382;2023-02-12T06:00:12;95290.53;;;0.81;89.94
10006;BME280;5042;42.626;23.382;2023-02-12T06:02:39;95301.88;;;0.79;93.04
10006;BME280;5042;42.626;23.382;2023-02-12T06:05:06;95301.66;;;0.82;94.21
10006;BME280;5042;42.626;23.382;2023-02-12T06:07:33;95299.41;;;0.77;98.56
10006;BME280;5042;42.626;23.382;2023-02-12T06:10:00;95227.88;;;0.30;100.00
10006;BME280;5042;42.626;23.382;2023-02-12T06:12:27;95254.88;;;0.50;100.00
10006;BME280;5042;42.626;23.382;2023-02-12T06:14:55;95310.94;;;0.84;100.00
10006;BME280;5042;42.626;23.382;2023-02-12T06:17:22;95310.72;;;0.88;100.00
10006;BME280;5042;42.626;23.382;2023-02-12T06:19:48;95302.28;;;0.86;100.00
10006;BME280;5042;42.626;23.382;2023-02-12T06:22:15;95309.19;;;0.85;100.00
10006;BME280;5042;42.626;23.382;2023-02-12T06:24:42;95306.81;;;0.82;100.00
10006;BME280;5042;42.626;23.382;2023-02-12T06:27:09;95306.22;;;0.78;100.00
10006;BME280;5042;42.626;23.382;2023-02-12T06:29:35;95309.72;;;0.77;100.00
10006;BME280;5042;42.626;23.382;2023-02-12T06:32:04;95309.63;;;0.79;100.00
10006;BME280;5042;42.626;23.382;2023-02-12T06:34:33;95301.25;;;0.75;100.00
10006;BME280;5042;42.626;23.382;2023-02-12T06:36:59;95312.72;;;0.84;100.00
10006;BME280;5042;42.626;23.382;2023-02-12T06:39:26;95309.09;;;0.87;100.00
10006;BME280;5042;42.626;23.382;2023-02-12T06:41:53;95316.13;;;0.84;100.00
10006;BME280;5042;42.626;23.382;2023-02-12T06:44:20;95313.03;;;0.79;100.00
10006;BME280;5042;42.626;23.382;2023-02-12T06:46:46;95308.91;;;0.77;100.00
10006;BME280;5042;42.626;23.382;2023-02-12T06:49:15;95311.81;;;0.72;100.00
10006;BME280;5042;42.626;23.382;2023-02-12T06:51:42;95318.81;;;0.70;100.00
10006;BME280;5042;42.626;23.382;2023-02-12T06:54:12;95316.97;;;0.72;100.00
10006;BME280;5042;42.626;23.382;2023-02-12T06:56:39;95329.25;;;0.81;100.00
10006;BME280;5042;42.626;23.382;2023-02-12T06:59:06;95333.28;;;0.86;100.00
10006;BME280;5042;42.626;23.382;2023-02-12T07:01:32;95331.91;;;0.93;100.00
10006;BME280;5042;42.626;23.382;2023-02-12T07:04:00;95109.72;;;-0.52;100.00
10006;BME280;5042;42.626;23.382;2023-02-12T07:06:30;95322.72;;;0.76;100.00
10006;BME280;5042;42.626;23.382;2023-02-12T07:08:58;95325.00;;;0.80;100.00
10006;BME280;5042;42.626;23.382;2023-02-12T07:11:27;95330.78;;;0.84;100.00
10006;BME280;5042;42.626;23.382;2023-02-12T07:13:55;95327.88;;;0.89;100.00
10006;BME280;5042;42.626;23.382;2023-02-12T07:16:22;95339.34;;;0.84;100.00
10006;BME280;5042;42.626;23.382;2023-02-12T07:18:49;95332.41;;;0.85;100.00
10006;BME280;5042;42.626;23.382;2023-02-12T07:21:16;95335.31;;;0.80;100.00
10006;BME280;5042;42.626;23.382;2023-02-12T07:23:47;95231.09;;;0.20;100.00
10006;BME280;5042;42.626;23.382;2023-02-12T07:26:14;95328.84;;;0.75;100.00
10006;BME280;5042;42.626;23.382;2023-02-12T07:28:42;95244.69;;;0.23;100.00
10006;BME280;5042;42.626;23.382;2023-02-12T07:31:10;95313.97;;;0.66;100.00
10006;BME280;5042;42.626;23.382;2023-02-12T07:33:38;95318.00;;;0.70;100.00
10006;BME280;5042;42.626;23.382;2023-02-12T07:36:06;95324.41;;;0.77;100.00
10006;BME280;5042;42.626;23.382;2023-02-12T07:38:33;95339.44;;;0.83;100.00
10006;BME280;5042;42.626;23.382;2023-02-12T07:41:10;95346.88;;;0.88;100.00
10006;BME280;5042;42.626;23.382;2023-02-12T07:43:38;95343.88;;;0.94;100.00
10006;BME280;5042;42.626;23.382;2023-02-12T07:46:09;95332.03;;;0.78;100.00
10006;BME280;5042;42.626;23.382;2023-02-12T07:48:36;95347.63;;;0.77;100.00
10006;BME280;5042;42.626;23.382;2023-02-12T07:51:05;95359.59;;;0.78;100.00
10006;BME280;5042;42.626;23.382;2023-02-12T07:53:32;95344.22;;;0.76;100.00
10006;BME280;5042;42.626;23.382;2023-02-12T07:56:19;95355.06;;;0.69;100.00
10006;BME280;5042;42.626;23.382;2023-02-12T07:58:50;95337.22;;;0.53;100.00
10006;BME280;5042;42.626;23.382;2023-02-12T08:01:18;95351.06;;;0.65;100.00
10006;BME280;5042;42.626;23.382;2023-02-12T08:03:46;95350.00;;;0.67;100.00
10006;BME280;5042;42.626;23.382;2023-02-12T08:06:16;95348.16;;;0.69;100.00
10006;BME280;5042;42.626;23.382;2023-02-12T08:08:43;95338.88;;;0.54;100.00
10006;BME280;5042;42.626;23.382;2023-02-12T08:11:12;95360.97;;;0.58;100.00
10006;BME280;5042;42.626;23.382;2023-02-12T08:13:40;95340.00;;;0.50;100.00
10006;BME280;5042;42.626;23.382;2023-02-12T08:16:09;95344.47;;;0.48;100.00
10006;BME280;5042;42.626;23.382;2023-02-12T08:18:36;95360.97;;;0.58;100.00
10006;BME280;5042;42.626;23.382;2023-02-12T08:21:04;95356.22;;;0.52;100.00
10006;BME280;5042;42.626;23.382;2023-02-12T08:23:32;95363.44;;;0.59;100.00
10006;BME280;5042;42.626;23.382;2023-02-12T08:26:07;95347.66;;;0.51;100.00
10006;BME280;5042;42.626;23.382;2023-02-12T08:28:34;95357.25;;;0.62;100.00
10006;BME280;5042;42.626;23.382;2023-02-12T08:31:05;95373.75;;;0.72;100.00
10006;BME280;5042;42.626;23.382;2023-02-12T08:33:33;95377.25;;;0.71;100.00
10006;BME280;5042;42.626;23.382;2023-02-12T08:36:01;95382.00;;;0.77;100.00
10006;BME280;5042;42.626;23.382;2023-02-12T08:38:28;95373.25;;;0.67;100.00
10006;BME280;5042;42.626;23.382;2023-02-12T08:40:54;95370.22;;;0.73;100.00
10006;BME280;5042;42.626;23.382;2023-02-12T08:43:21;95387.88;;;0.92;100.00
10006;BME280;5042;42.626;23.382;2023-02-12T08:45:48;95405.75;;;0.95;100.00
10006;BME280;5042;42.626;23.382;2023-02-12T08:48:16;95400.13;;;1.01;100.00
10006;BME280;5042;42.626;23.382;2023-02-12T08:50:45;95408.63;;;0.91;100.00
10006;BME280;5042;42.626;23.382;2023-02-12T08:53:11;95403.25;;;0.94;100.00
10006;BME280;5042;42.626;23.382;2023-02-12T08:55:38;95398.19;;;0.92;100.00
10006;BME280;5042;42.626;23.382;2023-02-12T08:58:05;95404.06;;;0.94;100.00
10006;BME280;5042;42.626;23.382;2023-02-12T09:00:32;95415.00;;;1.11;100.00
10006;BME280;5042;42.626;23.382;2023-02-12T09:02:58;95404.16;;;1.05;100.00
10006;BME280;5042;42.626;23.382;2023-02-12T09:05:26;95425.44;;;1.09;100.00
10006;BME280;5042;42.626;23.382;2023-02-12T09:07:53;95418.09;;;1.16;100.00
10006;BME280;5042;42.626;23.382;2023-02-12T09:10:20;95382.28;;;0.98;100.00
10006;BME280;5042;42.626;23.382;2023-02-12T09:12:47;95351.44;;;0.71;100.00
10006;BME280;5042;42.626;23.382;2023-02-12T09:15:13;95422.03;;;1.09;100.00
10006;BME280;5042;42.626;23.382;2023-02-12T09:17:40;95423.88;;;1.06;100.00
10006;BME280;5042;42.626;23.382;2023-02-12T09:20:08;95433.00;;;1.12;100.00
10006;BME280;5042;42.626;23.382;2023-02-12T09:22:37;95430.28;;;1.14;100.00
10006;BME280;5042;42.626;23.382;2023-02-12T09:25:04;95433.53;;;1.04;100.00
10006;BME280;5042;42.626;23.382;2023-02-12T09:27:31;95433.63;;;1.03;100.00
10006;BME280;5042;42.626;23.382;2023-02-12T09:29:58;95426.28;;;0.97;100.00
10006;BME280;5042;42.626;23.382;2023-02-12T09:32:24;95434.25;;;0.94;100.00
10006;BME280;5042;42.626;23.382;2023-02-12T09:34:51;95424.00;;;0.92;100.00
10006;BME280;5042;42.626;23.382;2023-02-12T09:37:18;95428.03;;;0.96;100.00
10006;BME280;5042;42.626;23.382;2023-02-12T09:39:46;95426.78;;;1.02;100.00
10006;BME280;5042;42.626;23.382;2023-02-12T09:42:41;95430.41;;;1.12;100.00
10006;BME280;5042;42.626;23.382;2023-02-12T09:45:19;95412.97;;;1.03;100.00
10006;BME280;5042;42.626;23.382;2023-02-12T09:47:52;95426.78;;;1.02;100.00
10006;BME280;5042;42.626;23.382;2023-02-12T09:50:31;95424.00;;;1.05;100.00
10006;BME280;5042;42.626;23.382;2023-02-12T09:52:59;95426.16;;;1.11;100.00
10006;BME280;5042;42.626;23.382;2023-02-12T09:55:30;95419.97;;;1.01;100.00
10006;BME280;5042;42.626;23.382;2023-02-12T09:57:57;95428.84;;;0.97;100.00
10006;BME280;5042;42.626;23.382;2023-02-12T10:00:27;95423.91;;;0.94;100.00
10006;BME280;5042;42.626;23.382;2023-02-12T10:02:57;95432.25;;;1.10;100.00
10006;BME280;5042;42.626;23.382;2023-02-12T10:05:30;95405.84;;;0.94;100.00
10006;BME280;5042;42.626;23.382;2023-02-12T10:08:12;95429.81;;;0.96;100.00
10006;BME280;5042;42.626;23.382;2023-02-12T10:10:50;95439.91;;;0.99;100.00
10006;BME280;5042;42.626;23.382;2023-02-12T10:13:26;95433.91;;;1.11;100.00
10006;BME280;5042;42.626;23.382;2023-02-12T10:16:00;95438.53;;;1.32;100.00
10006;BME280;5042;42.626;23.382;2023-02-12T10:18:41;95433.59;;;1.29;100.00
10006;BME280;5042;42.626;23.382;2023-02-12T10:21:20;95437.47;;;1.34;100.00
10006;BME280;5042;42.626;23.382;2023-02-12T10:24:25;95440.16;;;1.33;100.00
10006;BME280;5042;42.626;23.382;2023-02-12T10:27:04;95430.38;;;1.25;100.00
10006;BME280;5042;42.626;23.382;2023-02-12T10:29:38;95434.59;;;1.39;100.00
10006;BME280;5042;42.626;23.382;2023-02-12T10:32:12;95450.69;;;1.42;100.00
10006;BME280;5042;42.626;23.382;2023-02-12T10:34:40;95442.06;;;1.18;100.00
10006;BME280;5042;42.626;23.382;2023-02-12T10:37:13;95453.22;;;1.18;100.00
10006;BME280;5042;42.626;23.382;2023-02-12T10:39:47;95448.94;;;1.30;100.00
10006;BME280;5042;42.626;23.382;2023-02-12T10:42:20;95451.22;;;1.35;100.00
10006;BME280;5042;42.626;23.382;2023-02-12T10:44:50;95451.09;;;1.49;100.00
10006;BME280;5042;42.626;23.382;2023-02-12T10:47:18;95457.28;;;1.59;100.00
10006;BME280;5042;42.626;23.382;2023-02-12T10:49:56;95450.13;;;1.63;100.00
10006;BME280;5042;42.626;23.382;2023-02-12T10:52:32;95435.66;;;1.60;100.00
10006;BME280;5042;42.626;23.382;2023-02-12T10:55:01;95465.25;;;1.80;100.00
10006;BME280;5042;42.626;23.382;2023-02-12T10:57:30;95456.41;;;1.72;100.00
10006;BME280;5042;42.626;23.382;2023-02-12T11:00:13;95465.88;;;1.84;100.00
10006;BME280;5042;42.626;23.382;2023-02-12T11:02:59;95437.19;;;1.87;100.00
10006;BME280;5042;42.626;23.382;2023-02-12T11:05:28;95454.66;;;1.96;100.00
10006;BME280;5042;42.626;23.382;2023-02-12T11:07:55;95444.16;;;1.86;100.00
10006;BME280;5042;42.626;23.382;2023-02-12T11:10:26;95418.38;;;1.85;100.00
10006;BME280;5042;42.626;23.382;2023-02-12T11:12:55;95452.94;;;2.08;100.00
10006;BME280;5042;42.626;23.382;2023-02-12T11:15:24;95451.13;;;2.21;100.00
10006;BME280;5042;42.626;23.382;2023-02-12T11:17:56;95428.94;;;2.06;100.00
10006;BME280;5042;42.626;23.382;2023-02-12T11:20:26;95458.00;;;2.33;100.00
10006;BME280;5042;42.626;23.382;2023-02-12T11:22:55;95436.38;;;2.46;100.00
10006;BME280;5042;42.626;23.382;2023-02-12T11:25:24;95455.63;;;2.77;100.00
10006;BME280;5042;42.626;23.382;2023-02-12T11:28:02;95451.88;;;2.81;100.00
10006;BME280;5042;42.626;23.382;2023-02-12T11:30:29;95391.19;;;2.39;100.00
10006;BME280;5042;42.626;23.382;2023-02-12T11:33:14;95365.59;;;2.11;100.00
10006;BME280;5042;42.626;23.382;2023-02-12T11:35:48;95409.72;;;2.57;100.00
10006;BME280;5042;42.626;23.382;2023-02-12T11:38:22;95436.09;;;2.84;100.00
10006;BME280;5042;42.626;23.382;2023-02-12T11:40:50;95392.09;;;2.73;100.00
10006;BME280;5042;42.626;23.382;2023-02-12T11:43:19;95440.63;;;3.16;100.00
10006;BME280;5042;42.626;23.382;2023-02-12T11:45:50;95448.38;;;3.27;100.00
10006;BME280;5042;42.626;23.382;2023-02-12T11:48:22;95451.44;;;3.21;100.00
10006;BME280;5042;42.626;23.382;2023-02-12T11:50:52;95447.19;;;3.31;100.00
10006;BME280;5042;42.626;23.382;2023-02-12T11:53:22;95428.81;;;3.34;100.00
10006;BME280;5042;42.626;23.382;2023-02-12T11:55:55;95445.53;;;3.53;100.00
10006;BME280;5042;42.626;23.382;2023-02-12T11:58:26;95431.53;;;3.44;100.00
10006;BME280;5042;42.626;23.382;2023-02-12T12:01:13;95399.84;;;3.29;100.00
10006;BME280;5042;42.626;23.382;2023-02-12T12:03:47;95447.63;;;3.70;100.00
10006;BME280;5042;42.626;23.382;2023-02-12T12:06:23;95450.94;;;3.61;100.00
10006;BME280;5042;42.626;23.382;2023-02-12T12:08:56;95459.91;;;3.34;100.00
10006;BME280;5042;42.626;23.382;2023-02-12T12:11:28;95441.19;;;3.19;100.00
10006;BME280;5042;42.626;23.382;2023-02-12T12:14:10;95395.28;;;2.88;100.00
10006;BME280;5042;42.626;23.382;2023-02-12T12:16:43;95449.78;;;3.31;100.00
10006;BME280;5042;42.626;23.382;2023-02-12T12:19:35;95456.97;;;3.50;100.00
10006;BME280;5042;42.626;23.382;2023-02-12T12:22:35;95374.66;;;3.09;100.00
10006;BME280;5042;42.626;23.382;2023-02-12T12:25:09;95467.69;;;3.68;100.00
10006;BME280;5042;42.626;23.382;2023-02-12T12:27:43;95442.91;;;3.64;100.00
10006;BME280;5042;42.626;23.382;2023-02-12T12:30:37;95452.94;;;3.46;100.00
10006;BME280;5042;42.626;23.382;2023-02-12T12:33:11;95463.22;;;3.48;100.00
10006;BME280;5042;42.626;23.382;2023-02-12T12:35:46;95450.03;;;3.39;100.00
10006;BME280;5042;42.626;23.382;2023-02-12T12:38:22;95471.91;;;3.69;100.00
10006;BME280;5042;42.626;23.382;2023-02-12T12:41:01;95485.31;;;3.86;100.00
10006;BME280;5042;42.626;23.382;2023-02-12T12:43:37;95478.00;;;3.91;100.00
10006;BME280;5042;42.626;23.382;2023-02-12T12:46:24;95466.72;;;3.80;100.00
10006;BME280;5042;42.626;23.382;2023-02-12T12:49:12;95481.31;;;3.81;100.00
10006;BME280;5042;42.626;23.382;2023-02-12T12:52:04;95477.19;;;3.68;100.00
10006;BME280;5042;42.626;23.382;2023-02-12T12:54:51;95472.75;;;3.58;100.00
10006;BME280;5042;42.626;23.382;2023-02-12T12:57:34;95489.13;;;3.59;100.00
10006;BME280;5042;42.626;23.382;2023-02-12T13:00:18;95361.25;;;2.81;100.00
10006;BME280;5042;42.626;23.382;2023-02-12T13:06:00;95478.97;;;3.56;100.00
10006;BME280;5042;42.626;23.382;2023-02-12T13:08:42;95464.97;;;3.36;100.00
10006;BME280;5042;42.626;23.382;2023-02-12T13:11:22;95489.84;;;3.50;100.00
10006;BME280;5042;42.626;23.382;2023-02-12T13:14:02;95494.06;;;3.51;100.00
10006;BME280;5042;42.626;23.382;2023-02-12T13:16:38;95487.34;;;3.48;100.00
10006;BME280;5042;42.626;23.382;2023-02-12T13:19:14;95494.56;;;3.45;100.00
10006;BME280;5042;42.626;23.382;2023-02-12T13:21:50;95495.28;;;3.47;100.00
10006;BME280;5042;42.626;23.382;2023-02-12T13:24:24;95489.59;;;3.42;100.00
10006;BME280;5042;42.626;23.382;2023-02-12T13:26:57;95432.84;;;3.05;100.00
10006;BME280;5042;42.626;23.382;2023-02-12T13:29:28;95492.78;;;3.45;100.00